createdAt,value
2023-02-18T00:00:57.691Z,7.85
2023-02-18T00:04:06.373Z,7.03
2023-02-18T00:07:20.692Z,5.60
2023-02-18T00:10:28.668Z,4.90
2023-02-18T00:13:37.434Z,4.60
2023-02-18T00:16:48.970Z,4.07
2023-02-18T00:20:03.717Z,3.40
2023-02-18T00:23:12.618Z,3.22
2023-02-18T00:26:28.773Z,3.43
2023-02-18T00:29:30.565Z,3.50
2023-02-18T00:32:45.737Z,3.30
2023-02-18T00:35:54.745Z,3.42
2023-02-18T00:39:07.525Z,2.90
2023-02-18T00:42:22.727Z,2.70
2023-02-18T00:45:24.592Z,3.00
2023-02-18T00:48:41.720Z,2.70
2023-02-18T00:51:56.813Z,2.12
2023-02-18T00:55:12.720Z,2.75
2023-02-18T00:58:15.801Z,2.30
2023-02-18T01:01:31.793Z,2.33
2023-02-18T01:04:46.773Z,1.85
2023-02-18T01:08:01.768Z,2.12
2023-02-18T01:11:05.484Z,2.20
2023-02-18T01:14:19.768Z,1.77
2023-02-18T01:17:21.627Z,1.70
2023-02-18T01:20:37.786Z,1.52
2023-02-18T01:23:46.599Z,1.40
2023-02-18T01:26:54.739Z,1.40
2023-02-18T01:30:12.746Z,1.43
2023-02-18T01:33:14.791Z,1.20
2023-02-18T01:36:29.708Z,1.60
2023-02-18T01:39:31.670Z,1.10
2023-02-18T01:42:47.725Z,1.10
2023-02-18T01:46:10.932Z,1.40
2023-02-18T01:49:37.793Z,1.03
2023-02-18T01:52:52.772Z,1.20
2023-02-18T01:56:03.840Z,1.10
2023-02-18T01:59:19.800Z,1.50
2023-02-18T02:02:36.749Z,1.43
2023-02-18T02:05:38.605Z,0.90
2023-02-18T02:08:56.789Z,0.90
2023-02-18T02:12:26.798Z,1.00
2023-02-18T02:16:01.822Z,1.23
2023-02-18T02:19:35.780Z,1.40
2023-02-18T02:23:10.759Z,0.90
2023-02-18T02:26:36.056Z,1.00
2023-02-18T02:30:14.783Z,0.85
2023-02-18T02:33:43.295Z,0.90
2023-02-18T02:37:01.798Z,1.10
2023-02-18T02:40:46.689Z,1.07
2023-02-18T02:44:19.854Z,0.93
2023-02-18T02:47:36.623Z,0.90
2023-02-18T02:51:04.822Z,0.88
2023-02-18T02:54:28.801Z,1.00
2023-02-18T02:57:57.756Z,0.90
2023-02-18T03:01:31.790Z,1.00
2023-02-18T03:04:54.935Z,1.10
2023-02-18T03:08:25.869Z,1.00
2023-02-18T03:11:35.422Z,1.10
2023-02-18T03:15:00.806Z,0.93
2023-02-18T03:18:15.339Z,1.12
2023-02-18T03:21:34.853Z,1.05
2023-02-18T03:24:42.415Z,1.00
2023-02-18T03:28:03.822Z,0.83
2023-02-18T03:31:16.906Z,0.93
2023-02-18T03:34:31.692Z,0.85
2023-02-18T03:37:45.807Z,1.10
2023-02-18T03:40:56.288Z,0.70
2023-02-18T03:44:14.791Z,0.80
2023-02-18T03:47:22.848Z,1.00
2023-02-18T03:50:31.636Z,1.05
2023-02-18T03:53:53.859Z,1.00
2023-02-18T03:56:55.662Z,1.30
2023-02-18T04:00:13.889Z,1.30
2023-02-18T04:03:15.874Z,0.90
2023-02-18T04:06:30.796Z,0.90
2023-02-18T04:09:32.766Z,0.90
2023-02-18T04:12:47.784Z,0.62
2023-02-18T04:16:02.852Z,0.80
2023-02-18T04:19:04.654Z,0.80
2023-02-18T04:22:19.841Z,0.93
2023-02-18T04:25:21.766Z,0.98
2023-02-18T04:28:36.858Z,0.95
2023-02-18T04:31:45.009Z,0.83
2023-02-18T04:34:59.879Z,0.93
2023-02-18T04:38:07.834Z,0.80
2023-02-18T04:41:16.452Z,0.93
2023-02-18T04:44:24.851Z,1.10
2023-02-18T04:47:33.462Z,1.10
2023-02-18T04:50:41.814Z,1.50
2023-02-18T04:54:03.859Z,1.10
2023-02-18T04:57:05.727Z,1.10
2023-02-18T05:00:24.860Z,0.80
2023-02-18T05:03:33.921Z,0.90
2023-02-18T05:06:41.873Z,0.80
2023-02-18T05:09:50.646Z,0.60
2023-02-18T05:13:05.977Z,0.70
2023-02-18T05:16:15.090Z,0.80
2023-02-18T05:19:23.713Z,0.80
2023-02-18T05:22:31.899Z,0.93
2023-02-18T05:25:40.462Z,0.80
2023-02-18T05:28:48.873Z,0.73
2023-02-18T05:32:03.949Z,1.27
2023-02-18T05:35:12.504Z,1.30
2023-02-18T05:38:20.901Z,1.00
2023-02-18T05:41:29.570Z,1.33
2023-02-18T05:44:43.872Z,1.02
2023-02-18T05:47:58.878Z,1.05
2023-02-18T05:51:00.759Z,1.10
2023-02-18T05:54:22.883Z,1.30
2023-02-18T05:57:25.321Z,1.02
2023-02-18T06:00:39.873Z,1.33
2023-02-18T06:03:47.865Z,1.27
2023-02-18T06:07:02.940Z,1.20
2023-02-18T06:10:12.875Z,3.30
2023-02-18T06:13:27.925Z,1.12
2023-02-18T06:16:36.907Z,0.90
2023-02-18T06:19:45.895Z,0.90
2023-02-18T06:23:00.914Z,0.80
2023-02-18T06:26:10.180Z,1.10
2023-02-18T06:29:18.557Z,0.80
2023-02-18T06:32:32.921Z,0.60
2023-02-18T06:35:41.954Z,0.88
2023-02-18T06:38:51.901Z,0.90
2023-02-18T06:42:06.951Z,0.97
2023-02-18T06:45:15.633Z,0.85
2023-02-18T06:48:23.913Z,1.08
2023-02-18T06:51:40.451Z,1.08
2023-02-18T06:54:48.898Z,1.30
2023-02-18T06:57:57.812Z,1.00
2023-02-18T07:01:05.948Z,0.80
2023-02-18T07:04:14.753Z,0.70
2023-02-18T07:07:22.898Z,0.88
2023-02-18T07:10:37.955Z,0.80
2023-02-18T07:13:45.904Z,0.93
2023-02-18T07:17:00.917Z,1.00
2023-02-18T07:20:04.598Z,0.95
2023-02-18T07:23:18.937Z,0.95
2023-02-18T07:26:20.790Z,0.90
2023-02-18T07:29:35.925Z,1.07
2023-02-18T07:32:37.764Z,1.40
2023-02-18T07:35:52.917Z,0.80
2023-02-18T07:39:01.973Z,0.98
2023-02-18T07:42:19.036Z,1.07
2023-02-18T07:45:28.954Z,0.90
2023-02-18T07:48:37.651Z,3.03
2023-02-18T07:51:45.908Z,1.02
2023-02-18T07:55:01.488Z,0.90
2023-02-18T07:58:16.293Z,1.33
2023-02-18T08:01:24.653Z,1.03
2023-02-18T08:04:32.943Z,0.80
2023-02-18T08:07:41.783Z,0.77
2023-02-18T08:10:50.971Z,0.65
2023-02-18T08:13:59.579Z,0.73
2023-02-18T08:17:07.987Z,0.80
2023-02-18T08:20:22.908Z,1.33
2023-02-18T08:23:25.238Z,1.00
2023-02-18T08:26:54.238Z,0.95
2023-02-18T08:30:08.245Z,0.80
2023-02-18T08:33:17.751Z,0.90
2023-02-18T08:36:25.948Z,0.88
2023-02-18T08:39:37.991Z,0.80
2023-02-18T08:42:48.017Z,0.82
2023-02-18T08:46:04.990Z,0.70
2023-02-18T08:49:19.978Z,1.27
2023-02-18T08:52:28.941Z,0.80
2023-02-18T08:55:46.981Z,1.05
2023-02-18T08:58:48.763Z,1.12
2023-02-18T09:02:04.030Z,1.00
2023-02-18T09:05:12.808Z,1.30
2023-02-18T09:08:21.037Z,1.00
2023-02-18T09:11:37.005Z,0.90
2023-02-18T09:14:38.801Z,0.88
2023-02-18T09:17:53.989Z,1.00
2023-02-18T09:21:11.201Z,1.10
2023-02-18T09:24:26.966Z,1.27
2023-02-18T09:27:28.805Z,1.10
2023-02-18T09:30:46.060Z,1.20
2023-02-18T09:34:00.116Z,0.97
2023-02-18T09:37:14.973Z,1.10
2023-02-18T09:40:36.105Z,0.70
2023-02-18T09:43:49.982Z,1.08
2023-02-18T09:47:22.080Z,1.17
2023-02-18T09:50:33.965Z,2.57
2023-02-18T09:53:49.570Z,1.10
2023-02-18T09:57:00.030Z,0.90
2023-02-18T10:00:24.989Z,0.90
2023-02-18T10:03:33.994Z,1.00
2023-02-18T10:06:44.972Z,0.90
2023-02-18T10:09:56.965Z,1.30
2023-02-18T10:13:19.153Z,1.70
2023-02-18T10:16:23.628Z,0.90
2023-02-18T10:19:43.012Z,0.80
2023-02-18T10:22:44.963Z,0.70
2023-02-18T10:26:01.025Z,0.80
2023-02-18T10:29:11.007Z,0.80
2023-02-18T10:32:34.129Z,0.60
2023-02-18T10:36:01.031Z,0.52
2023-02-18T10:39:20.783Z,0.83
2023-02-18T10:42:56.050Z,0.70
2023-02-18T10:46:14.288Z,1.05
2023-02-18T10:49:53.021Z,0.90
2023-02-18T10:53:06.040Z,0.75
2023-02-18T10:56:33.682Z,1.10
2023-02-18T10:59:42.075Z,1.20
2023-02-18T11:03:03.881Z,0.88
2023-02-18T11:06:28.080Z,0.98
2023-02-18T11:09:46.941Z,1.15
2023-02-18T11:13:08.085Z,1.07
2023-02-18T11:16:23.247Z,1.07
2023-02-18T11:19:42.062Z,1.30
2023-02-18T11:22:50.062Z,1.67
2023-02-18T11:26:03.407Z,0.95
2023-02-18T11:29:22.399Z,1.07
2023-02-18T11:32:43.212Z,1.10
2023-02-18T11:35:51.889Z,2.17
2023-02-18T11:39:13.069Z,1.42
2023-02-18T11:42:18.601Z,1.00
2023-02-18T11:45:40.085Z,1.30
2023-02-18T11:48:42.375Z,1.40
2023-02-18T11:51:58.084Z,1.40
2023-02-18T11:55:23.127Z,1.40
2023-02-18T11:58:40.933Z,1.50
2023-02-18T12:01:57.096Z,1.50
2023-02-18T12:05:23.151Z,1.50
2023-02-18T12:08:37.077Z,1.35
2023-02-18T12:12:00.181Z,1.20
2023-02-18T12:15:18.278Z,1.17
2023-02-18T12:18:52.089Z,1.13
2023-02-18T12:22:12.138Z,1.30
2023-02-18T12:25:41.068Z,1.30
2023-02-18T12:29:09.161Z,1.40
2023-02-18T12:32:36.289Z,1.10
2023-02-18T12:36:03.106Z,1.23
2023-02-18T12:39:43.089Z,1.80
2023-02-18T12:43:06.894Z,1.00
2023-02-18T12:46:52.202Z,1.30
2023-02-18T12:50:40.173Z,1.20
2023-02-18T12:54:18.537Z,0.90
2023-02-18T12:57:43.113Z,0.83
2023-02-18T13:01:15.165Z,1.20
2023-02-18T13:04:36.717Z,1.00
2023-02-18T13:08:11.155Z,0.80
2023-02-18T13:11:36.851Z,1.00
2023-02-18T13:14:56.121Z,1.00
2023-02-18T13:18:19.132Z,1.20
2023-02-18T13:21:36.276Z,1.00
2023-02-18T13:24:45.299Z,1.45
2023-02-18T13:28:14.105Z,1.23
2023-02-18T13:31:28.199Z,0.90
2023-02-18T13:35:03.169Z,0.80
2023-02-18T13:38:38.117Z,0.90
2023-02-18T13:41:49.173Z,0.93
2023-02-18T13:45:11.142Z,1.00
2023-02-18T13:48:34.141Z,1.67
2023-02-18T13:51:57.171Z,10.27
2023-02-18T13:55:24.691Z,1.12
2023-02-18T13:59:06.162Z,1.77
2023-02-18T14:02:34.860Z,1.13
2023-02-18T14:05:50.173Z,1.50
2023-02-18T14:09:04.755Z,3.08
2023-02-18T14:12:34.202Z,0.90
2023-02-18T14:16:04.175Z,1.50
2023-02-18T14:19:35.158Z,0.87
2023-02-18T14:22:47.126Z,0.70
2023-02-18T14:26:01.178Z,0.80
2023-02-18T14:29:22.148Z,0.40
2023-02-18T14:32:31.113Z,1.00
2023-02-18T14:36:00.172Z,0.80
2023-02-18T14:39:22.664Z,0.60
2023-02-18T14:43:07.171Z,1.02
2023-02-18T14:46:42.609Z,0.80
2023-02-18T14:49:56.170Z,0.80
2023-02-18T14:53:24.262Z,0.60
2023-02-18T14:56:46.193Z,0.70
2023-02-18T15:00:05.158Z,1.25
2023-02-18T15:03:22.253Z,7.95
2023-02-18T15:06:34.004Z,13.68
2023-02-18T15:09:55.182Z,13.93
2023-02-18T15:13:15.813Z,15.30
2023-02-18T15:16:27.775Z,15.05
2023-02-18T15:19:51.339Z,15.50
2023-02-18T15:22:54.918Z,17.45
2023-02-18T15:26:10.503Z,17.47
2023-02-18T15:29:29.197Z,15.93
2023-02-18T15:32:40.610Z,18.75
2023-02-18T15:35:49.207Z,17.83
2023-02-18T15:38:58.213Z,20.10
2023-02-18T15:42:14.232Z,19.33
2023-02-18T15:45:36.252Z,19.40
2023-02-18T15:48:55.214Z,20.67
2023-02-18T15:52:21.205Z,21.58
2023-02-18T15:55:41.266Z,21.23
2023-02-18T15:58:43.254Z,22.80
2023-02-18T16:02:02.231Z,22.17
2023-02-18T16:05:20.225Z,21.43
2023-02-18T16:08:35.200Z,21.12
2023-02-18T16:11:55.229Z,22.50
2023-02-18T16:14:58.582Z,22.25
2023-02-18T16:18:26.200Z,21.12
2023-02-18T16:21:39.884Z,22.13
2023-02-18T16:24:56.223Z,23.17
2023-02-18T16:28:19.340Z,22.00
2023-02-18T16:31:34.308Z,22.05
2023-02-18T16:34:36.660Z,24.27
2023-02-18T16:37:51.363Z,21.77
2023-02-18T16:41:01.221Z,23.87
2023-02-18T16:44:19.236Z,22.65
2023-02-18T16:47:21.401Z,24.33
2023-02-18T16:50:39.237Z,25.27
2023-02-18T16:53:48.592Z,23.10
2023-02-18T16:57:03.239Z,22.10
2023-02-18T17:00:12.401Z,25.12
2023-02-18T17:03:22.017Z,25.77
2023-02-18T17:06:31.246Z,24.55
2023-02-18T17:09:40.114Z,25.03
2023-02-18T17:12:49.249Z,25.08
2023-02-18T17:16:05.275Z,23.67
2023-02-18T17:19:07.401Z,26.05
2023-02-18T17:22:23.265Z,26.90
2023-02-18T17:25:32.646Z,25.90
2023-02-18T17:28:48.292Z,25.45
2023-02-18T17:32:01.405Z,26.67
2023-02-18T17:35:16.432Z,26.05
2023-02-18T17:38:25.298Z,25.50
2023-02-18T17:41:34.197Z,24.70
2023-02-18T17:44:43.256Z,25.77
2023-02-18T17:47:52.137Z,26.08
2023-02-18T17:51:01.266Z,26.77
2023-02-18T17:54:19.299Z,24.23
2023-02-18T17:57:28.336Z,25.97
2023-02-18T18:00:42.445Z,24.77
2023-02-18T18:03:51.365Z,26.12
2023-02-18T18:07:00.047Z,26.83
2023-02-18T18:10:15.282Z,23.75
2023-02-18T18:13:32.292Z,25.77
2023-02-18T18:16:47.349Z,25.60
2023-02-18T18:19:56.274Z,25.40
2023-02-18T18:23:13.300Z,25.92
2023-02-18T18:26:28.323Z,26.73
2023-02-18T18:29:30.161Z,24.90
2023-02-18T18:32:46.300Z,25.62
2023-02-18T18:35:57.674Z,23.90
2023-02-18T18:39:07.299Z,25.52
2023-02-18T18:42:23.320Z,26.45
2023-02-18T18:45:38.321Z,25.40
2023-02-18T18:48:54.336Z,23.95
2023-02-18T18:51:56.948Z,26.02
2023-02-18T18:55:28.312Z,24.85
2023-02-18T18:58:30.917Z,25.83
2023-02-18T19:01:45.344Z,25.63
2023-02-18T19:04:47.970Z,24.67
2023-02-18T19:08:04.368Z,25.25
2023-02-18T19:11:13.282Z,24.48
2023-02-18T19:14:22.186Z,22.17
2023-02-18T19:17:30.321Z,23.63
2023-02-18T19:20:45.294Z,22.58
2023-02-18T19:24:01.325Z,23.12
2023-02-18T19:27:03.448Z,21.95
2023-02-18T19:30:24.358Z,21.67
2023-02-18T19:33:26.723Z,23.30
2023-02-18T19:36:41.430Z,22.30
2023-02-18T19:39:50.921Z,22.75
2023-02-18T19:43:00.361Z,20.88
2023-02-18T19:46:11.067Z,20.12
2023-02-18T19:49:20.310Z,20.47
2023-02-18T19:52:36.369Z,20.12
2023-02-18T19:55:45.603Z,20.35
2023-02-18T19:59:02.309Z,21.30
2023-02-18T20:02:05.481Z,21.70
2023-02-18T20:05:21.400Z,22.83
2023-02-18T20:08:24.803Z,24.45
2023-02-18T20:11:39.405Z,24.98
2023-02-18T20:14:41.584Z,25.95
2023-02-18T20:17:57.362Z,27.87
2023-02-18T20:21:16.405Z,29.10
2023-02-18T20:24:25.238Z,28.95
2023-02-18T20:27:34.346Z,27.60
2023-02-18T20:30:50.452Z,28.30
2023-02-18T20:34:05.369Z,27.50
2023-02-18T20:37:14.356Z,29.20
2023-02-18T20:40:24.400Z,29.33
2023-02-18T20:43:33.144Z,28.77
2023-02-18T20:46:49.403Z,28.12
2023-02-18T20:49:58.401Z,27.67
2023-02-18T20:53:07.317Z,27.83
2023-02-18T20:56:29.395Z,28.35
2023-02-18T20:59:31.622Z,27.45
2023-02-18T21:02:47.506Z,25.85
2023-02-18T21:05:58.793Z,26.80
2023-02-18T21:09:07.357Z,25.13
2023-02-18T21:12:23.421Z,23.27
2023-02-18T21:15:38.381Z,21.55
2023-02-18T21:18:48.807Z,25.35
2023-02-18T21:21:58.389Z,25.48
2023-02-18T21:25:14.379Z,22.77
2023-02-18T21:28:23.417Z,20.60
2023-02-18T21:31:35.807Z,20.25
2023-02-18T21:34:50.658Z,19.42
2023-02-18T21:38:05.362Z,19.87
2023-02-18T21:41:14.806Z,19.67
2023-02-18T21:44:30.003Z,16.90
2023-02-18T21:47:46.577Z,15.95
2023-02-18T21:50:56.417Z,15.52
2023-02-18T21:54:18.385Z,13.27
2023-02-18T21:57:33.389Z,12.63
2023-02-18T22:00:48.415Z,12.07
2023-02-18T22:03:56.583Z,8.82
2023-02-18T22:07:13.439Z,5.62
2023-02-18T22:10:22.390Z,5.55
2023-02-18T22:13:37.407Z,4.07
2023-02-18T22:16:46.417Z,3.78
2023-02-18T22:20:02.379Z,4.30
2023-02-18T22:23:04.508Z,3.53
2023-02-18T22:26:19.377Z,2.90
2023-02-18T22:29:22.013Z,2.93
2023-02-18T22:32:36.404Z,3.00
2023-02-18T22:35:44.973Z,2.25
2023-02-18T22:39:00.392Z,2.58
2023-02-18T22:42:15.400Z,2.35
2023-02-18T22:45:17.265Z,2.10
2023-02-18T22:48:32.470Z,2.40
2023-02-18T22:51:37.138Z,2.45
2023-02-18T22:54:58.480Z,2.30
2023-02-18T22:58:00.408Z,2.40
2023-02-18T23:01:32.472Z,2.40
2023-02-18T23:04:41.415Z,3.03
2023-02-18T23:07:50.073Z,2.58
2023-02-18T23:11:09.732Z,2.05
2023-02-18T23:14:19.069Z,2.45
2023-02-18T23:17:27.441Z,2.53
2023-02-18T23:20:36.253Z,2.40
2023-02-18T23:23:45.412Z,1.65
2023-02-18T23:26:54.037Z,1.87
2023-02-18T23:30:03.485Z,2.17
2023-02-18T23:33:18.422Z,1.80
2023-02-18T23:36:22.741Z,2.00
2023-02-18T23:39:37.481Z,1.83
2023-02-18T23:42:46.104Z,1.40
2023-02-18T23:46:00.478Z,1.55
2023-02-18T23:49:10.449Z,1.70
2023-02-18T23:52:25.485Z,1.10
2023-02-18T23:55:47.417Z,1.30
2023-02-18T23:58:58.849Z,2.15
